createdAt,value
2018-01-14T00:01:08.448Z,17.87
2018-01-14T00:03:35.966Z,16.23
2018-01-14T00:06:03.481Z,15.60
2018-01-14T00:08:31.010Z,15.40
2018-01-14T00:10:58.578Z,16.47
2018-01-14T00:13:26.105Z,16.27
2018-01-14T00:15:53.721Z,17.30
2018-01-14T00:18:21.296Z,16.57
2018-01-14T00:20:48.824Z,16.63
2018-01-14T00:23:16.416Z,17.33
2018-01-14T00:25:43.977Z,17.17
2018-01-14T00:28:11.515Z,16.50
2018-01-14T00:30:39.049Z,17.30
2018-01-14T00:33:06.582Z,17.40
2018-01-14T00:35:34.124Z,16.80
2018-01-14T00:38:01.653Z,17.30
2018-01-14T00:40:29.240Z,16.50
2018-01-14T00:42:56.776Z,17.07
2018-01-14T00:45:24.308Z,17.97
2018-01-14T00:47:51.918Z,17.53
2018-01-14T00:50:19.474Z,17.07
2018-01-14T00:52:47.029Z,17.73
2018-01-14T00:55:14.597Z,17.40
2018-01-14T00:57:42.122Z,18.23
2018-01-14T01:00:09.716Z,18.80
2018-01-14T01:02:37.239Z,17.90
2018-01-14T01:05:04.773Z,16.83
2018-01-14T01:07:32.342Z,17.53
2018-01-14T01:09:59.872Z,17.50
2018-01-14T01:12:27.401Z,17.60
2018-01-14T01:14:54.912Z,17.33
2018-01-14T01:17:22.436Z,17.70
2018-01-14T01:19:49.952Z,16.17
2018-01-14T01:22:17.492Z,18.17
2018-01-14T01:24:45.009Z,16.67
2018-01-14T01:27:12.563Z,18.90
2018-01-14T01:29:40.128Z,17.30
2018-01-14T01:32:07.657Z,16.67
2018-01-14T01:34:35.182Z,16.57
2018-01-14T01:37:02.716Z,17.03
2018-01-14T01:39:30.240Z,16.93
2018-01-14T01:41:57.766Z,17.03
2018-01-14T01:44:25.384Z,16.73
2018-01-14T01:46:52.914Z,18.20
2018-01-14T01:49:20.445Z,15.43
2018-01-14T01:51:48.060Z,15.83
2018-01-14T01:54:15.592Z,16.63
2018-01-14T01:56:43.154Z,16.93
2018-01-14T01:59:10.682Z,17.47
2018-01-14T02:01:38.206Z,15.13
2018-01-14T02:04:05.818Z,17.30
2018-01-14T02:06:33.362Z,16.77
2018-01-14T02:09:00.175Z,16.73
2018-01-14T02:11:27.700Z,17.47
2018-01-14T02:13:55.229Z,16.83
2018-01-14T02:16:22.757Z,17.87
2018-01-14T02:18:50.289Z,16.57
2018-01-14T02:21:17.864Z,16.60
2018-01-14T02:23:45.392Z,16.07
2018-01-14T02:26:12.982Z,16.47
2018-01-14T02:28:40.509Z,16.40
2018-01-14T02:31:08.102Z,17.23
2018-01-14T02:33:35.628Z,15.60
2018-01-14T02:36:03.158Z,16.53
2018-01-14T02:38:30.782Z,16.70
2018-01-14T02:40:58.310Z,15.60
2018-01-14T02:43:25.903Z,16.13
2018-01-14T02:45:53.451Z,17.03
2018-01-14T02:48:20.981Z,15.97
2018-01-14T02:50:48.513Z,16.63
2018-01-14T02:53:16.138Z,16.40
2018-01-14T02:55:43.670Z,16.50
2018-01-14T02:58:11.189Z,16.50
2018-01-14T03:00:38.715Z,14.97
2018-01-14T03:03:06.237Z,15.17
2018-01-14T03:05:33.764Z,16.27
2018-01-14T03:08:01.395Z,14.90
2018-01-14T03:10:28.924Z,15.63
2018-01-14T03:12:56.449Z,16.33
2018-01-14T03:15:23.987Z,17.00
2018-01-14T03:17:51.509Z,17.07
2018-01-14T03:20:19.025Z,17.67
2018-01-14T03:22:46.540Z,16.00
2018-01-14T03:25:14.121Z,17.40
2018-01-14T03:27:41.650Z,17.13
2018-01-14T03:30:09.178Z,17.00
2018-01-14T03:32:36.763Z,16.93
2018-01-14T03:35:04.313Z,17.13
2018-01-14T03:37:31.828Z,16.13
2018-01-14T03:39:59.348Z,17.37
2018-01-14T03:42:26.860Z,15.80
2018-01-14T03:44:54.379Z,16.80
2018-01-14T03:47:21.893Z,16.63
2018-01-14T03:49:49.411Z,16.27
2018-01-14T03:52:16.933Z,16.33
2018-01-14T03:54:44.524Z,15.50
2018-01-14T03:57:12.049Z,16.77
2018-01-14T03:59:39.577Z,16.60
2018-01-14T04:02:07.091Z,16.23
2018-01-14T04:04:34.620Z,16.47
2018-01-14T04:07:02.193Z,16.37
2018-01-14T04:09:29.783Z,17.03
2018-01-14T04:11:57.312Z,16.93
2018-01-14T04:14:24.835Z,16.60
2018-01-14T04:16:52.348Z,17.00
2018-01-14T04:19:22.304Z,16.50
2018-01-14T04:21:49.826Z,17.40
2018-01-14T04:24:17.335Z,16.57
2018-01-14T04:26:44.853Z,17.17
2018-01-14T04:29:12.403Z,15.73
2018-01-14T04:31:39.949Z,16.37
2018-01-14T04:34:07.481Z,15.30
2018-01-14T04:36:34.999Z,16.37
2018-01-14T04:39:02.525Z,14.90
2018-01-14T04:41:30.108Z,15.87
2018-01-14T04:43:57.642Z,16.30
2018-01-14T04:46:25.165Z,15.47
2018-01-14T04:48:52.694Z,15.13
2018-01-14T04:51:20.241Z,15.57
2018-01-14T04:53:47.775Z,15.57
2018-01-14T04:56:15.302Z,16.37
2018-01-14T04:58:42.834Z,16.33
2018-01-14T05:01:10.360Z,15.83
2018-01-14T05:03:37.881Z,15.50
2018-01-14T05:06:05.395Z,16.27
2018-01-14T05:08:32.933Z,15.43
2018-01-14T05:11:00.519Z,16.33
2018-01-14T05:13:28.017Z,16.03
2018-01-14T05:15:55.644Z,16.40
2018-01-14T05:18:23.205Z,16.70
2018-01-14T05:20:50.745Z,16.67
2018-01-14T05:23:18.277Z,17.03
2018-01-14T05:25:45.799Z,16.77
2018-01-14T05:28:13.316Z,16.50
2018-01-14T05:30:40.841Z,16.30
2018-01-14T05:33:08.365Z,16.33
2018-01-14T05:35:35.912Z,16.27
2018-01-14T05:38:03.436Z,17.10
2018-01-14T05:40:31.040Z,16.90
2018-01-14T05:42:58.572Z,17.20
2018-01-14T05:45:26.166Z,15.93
2018-01-14T05:47:53.712Z,17.63
2018-01-14T05:50:21.285Z,17.47
2018-01-14T05:52:48.816Z,15.57
2018-01-14T05:55:16.364Z,17.57
2018-01-14T05:57:43.894Z,17.53
2018-01-14T06:00:11.511Z,16.87
2018-01-14T06:02:39.032Z,17.97
2018-01-14T06:05:06.648Z,18.47
2018-01-14T06:07:34.173Z,17.63
2018-01-14T06:10:01.692Z,18.03
2018-01-14T06:12:29.219Z,17.63
2018-01-14T06:14:56.767Z,17.83
2018-01-14T06:17:24.289Z,18.30
2018-01-14T06:19:51.813Z,18.10
2018-01-14T06:22:19.330Z,17.57
2018-01-14T06:24:46.858Z,17.53
2018-01-14T06:27:14.375Z,18.33
2018-01-14T06:29:41.924Z,17.57
2018-01-14T06:32:09.455Z,18.13
2018-01-14T06:34:37.001Z,18.67
2018-01-14T06:37:04.614Z,18.33
2018-01-14T06:39:32.144Z,18.90
2018-01-14T06:41:59.676Z,18.33
2018-01-14T06:44:27.240Z,18.10
2018-01-14T06:46:54.849Z,18.50
2018-01-14T06:49:22.404Z,18.70
2018-01-14T06:51:49.978Z,18.13
2018-01-14T06:54:17.543Z,18.67
2018-01-14T06:56:45.066Z,19.30
2018-01-14T06:59:12.601Z,19.10
2018-01-14T07:01:40.125Z,19.20
2018-01-14T07:04:07.636Z,19.57
2018-01-14T07:06:35.192Z,20.07
2018-01-14T07:09:02.753Z,19.70
2018-01-14T07:11:30.308Z,18.70
2018-01-14T07:13:57.834Z,18.10
2018-01-14T07:16:25.365Z,19.43
2018-01-14T07:18:52.923Z,19.30
2018-01-14T07:21:20.445Z,19.83
2018-01-14T07:23:47.960Z,19.17
2018-01-14T07:26:15.501Z,20.50
2018-01-14T07:28:43.029Z,19.23
2018-01-14T07:31:10.553Z,20.63
2018-01-14T07:33:38.193Z,19.63
2018-01-14T07:36:05.721Z,19.93
2018-01-14T07:38:33.268Z,18.97
2018-01-14T07:41:00.832Z,20.13
2018-01-14T07:43:28.385Z,20.33
2018-01-14T07:45:55.989Z,19.90
2018-01-14T07:48:23.518Z,21.30
2018-01-14T07:50:51.041Z,20.40
2018-01-14T07:53:18.660Z,20.77
2018-01-14T07:55:46.184Z,21.63
2018-01-14T07:58:13.720Z,20.23
2018-01-14T08:00:41.340Z,20.10
2018-01-14T08:03:08.864Z,20.17
2018-01-14T08:05:36.468Z,19.93
2018-01-14T08:08:04.034Z,20.50
2018-01-14T08:10:31.562Z,19.80
2018-01-14T08:12:59.152Z,21.43
2018-01-14T08:15:26.668Z,20.20
2018-01-14T08:17:54.275Z,20.03
2018-01-14T08:20:21.836Z,18.90
2018-01-14T08:22:49.376Z,19.00
2018-01-14T08:25:16.950Z,19.23
2018-01-14T08:27:44.480Z,18.70
2018-01-14T08:30:12.005Z,19.47
2018-01-14T08:32:39.646Z,18.97
2018-01-14T08:35:07.279Z,19.53
2018-01-14T08:37:34.812Z,18.47
2018-01-14T08:40:02.346Z,19.07
2018-01-14T08:42:29.868Z,18.33
2018-01-14T08:44:57.404Z,17.90
2018-01-14T08:47:24.929Z,18.77
2018-01-14T08:49:52.558Z,17.60
2018-01-14T08:52:20.089Z,16.87
2018-01-14T08:54:47.608Z,17.33
2018-01-14T08:57:15.226Z,17.20
2018-01-14T08:59:42.799Z,16.47
2018-01-14T09:02:10.316Z,17.30
2018-01-14T09:04:37.840Z,15.63
2018-01-14T09:07:05.468Z,16.03
2018-01-14T09:09:33.049Z,16.20
2018-01-14T09:12:00.566Z,18.33
2018-01-14T09:14:28.090Z,16.47
2018-01-14T09:16:55.714Z,16.13
2018-01-14T09:19:23.283Z,16.50
2018-01-14T09:21:50.805Z,16.13
2018-01-14T09:24:18.324Z,15.60
2018-01-14T09:26:45.841Z,15.80
2018-01-14T09:29:13.394Z,15.53
2018-01-14T09:31:40.908Z,16.67
2018-01-14T09:34:08.471Z,14.97
2018-01-14T09:36:35.977Z,16.60
2018-01-14T09:39:03.489Z,15.20
2018-01-14T09:41:31.162Z,14.37
2018-01-14T09:43:58.672Z,14.83
2018-01-14T09:46:26.237Z,14.90
2018-01-14T09:48:53.795Z,15.50
2018-01-14T09:51:21.322Z,14.53
2018-01-14T09:53:48.924Z,14.37
2018-01-14T09:56:16.471Z,14.67
2018-01-14T09:58:44.016Z,14.00
2018-01-14T10:01:11.567Z,13.73
2018-01-14T10:03:39.149Z,13.87
2018-01-14T10:06:06.661Z,14.77
2018-01-14T10:08:34.191Z,14.37
2018-01-14T10:11:01.725Z,14.90
2018-01-14T10:13:29.283Z,14.27
2018-01-14T10:15:56.817Z,14.33
2018-01-14T10:18:24.413Z,15.10
2018-01-14T10:20:51.968Z,14.73
2018-01-14T10:23:19.492Z,14.43
2018-01-14T10:25:47.012Z,12.27
2018-01-14T10:28:14.610Z,13.97
2018-01-14T10:30:42.184Z,13.77
2018-01-14T10:33:09.692Z,15.57
2018-01-14T10:35:37.324Z,14.23
2018-01-14T10:38:04.857Z,14.77
2018-01-14T10:40:32.368Z,15.03
2018-01-14T10:42:59.900Z,13.60
2018-01-14T10:45:27.466Z,14.23
2018-01-14T10:47:55.020Z,13.27
2018-01-14T10:50:22.547Z,13.03
2018-01-14T10:52:50.106Z,12.47
2018-01-14T10:55:17.699Z,12.93
2018-01-14T10:57:45.223Z,12.90
2018-01-14T11:00:12.746Z,12.43
2018-01-14T11:02:40.283Z,13.20
2018-01-14T11:05:07.797Z,12.53
2018-01-14T11:07:35.387Z,13.67
2018-01-14T11:10:02.948Z,12.63
2018-01-14T11:12:30.480Z,12.27
2018-01-14T11:14:58.077Z,14.03
2018-01-14T11:17:26.489Z,12.53
2018-01-14T11:19:54.019Z,12.77
2018-01-14T11:22:21.536Z,12.63
2018-01-14T11:24:49.180Z,12.77
2018-01-14T11:27:16.793Z,13.43
2018-01-14T11:30:01.861Z,13.60
2018-01-14T11:32:29.392Z,12.93
2018-01-14T11:34:56.949Z,13.00
2018-01-14T11:37:24.540Z,12.80
2018-01-14T11:39:52.145Z,12.23
2018-01-14T11:42:19.691Z,11.80
2018-01-14T11:44:47.230Z,12.27
2018-01-14T11:47:14.745Z,12.77
2018-01-14T11:49:42.273Z,12.77
2018-01-14T11:52:09.917Z,13.17
2018-01-14T11:54:37.460Z,13.27
2018-01-14T11:57:05.037Z,13.13
2018-01-14T11:59:32.560Z,13.13
2018-01-14T12:02:00.088Z,12.63
2018-01-14T12:04:27.607Z,12.60
2018-01-14T12:06:55.161Z,12.53
2018-01-14T12:09:22.686Z,12.90
2018-01-14T12:11:50.288Z,12.97
2018-01-14T12:14:17.853Z,13.87
2018-01-14T12:16:45.398Z,12.93
2018-01-14T12:19:12.916Z,13.20
2018-01-14T12:21:40.429Z,13.53
2018-01-14T12:24:07.944Z,13.63
2018-01-14T12:26:35.460Z,13.60
2018-01-14T12:29:03.007Z,13.33
2018-01-14T12:31:30.542Z,13.40
2018-01-14T12:37:11.660Z,14.03
2018-01-14T12:39:39.227Z,14.30
2018-01-14T12:42:06.785Z,13.80
2018-01-14T12:44:34.318Z,14.43
2018-01-14T12:47:01.842Z,15.40
2018-01-14T12:49:29.358Z,14.73
2018-01-14T12:51:56.895Z,14.53
2018-01-14T12:54:24.408Z,14.17
2018-01-14T12:56:51.946Z,13.53
2018-01-14T12:59:19.454Z,13.20
2018-01-14T13:01:46.972Z,14.77
2018-01-14T13:04:14.487Z,14.53
2018-01-14T13:06:42.071Z,13.37
2018-01-14T13:09:09.606Z,13.37
2018-01-14T13:11:37.124Z,13.87
2018-01-14T13:14:04.646Z,13.97
2018-01-14T13:16:32.172Z,14.93
2018-01-14T13:18:59.700Z,15.60
2018-01-14T13:21:27.235Z,15.47
2018-01-14T13:23:54.762Z,14.60
2018-01-14T13:26:22.285Z,14.67
2018-01-14T13:28:49.813Z,15.10
2018-01-14T13:31:17.325Z,14.97
2018-01-14T13:33:44.915Z,15.27
2018-01-14T13:36:12.436Z,15.07
2018-01-14T13:38:39.950Z,14.43
2018-01-14T13:41:07.473Z,14.37
2018-01-14T13:43:34.991Z,15.33
2018-01-14T13:46:02.508Z,15.07
2018-01-14T13:48:30.082Z,15.47
2018-01-14T13:50:57.609Z,14.33
2018-01-14T13:53:25.132Z,15.70
2018-01-14T13:55:52.649Z,15.97
2018-01-14T13:58:20.161Z,14.90
2018-01-14T14:00:47.682Z,16.60
2018-01-14T14:03:15.241Z,15.57
2018-01-14T14:05:42.763Z,15.50
2018-01-14T14:08:10.294Z,16.20
2018-01-14T14:10:37.903Z,16.03
2018-01-14T14:13:05.407Z,14.67
2018-01-14T14:15:32.924Z,15.57
2018-01-14T14:18:00.439Z,14.63
2018-01-14T14:20:28.049Z,16.10
2018-01-14T14:22:55.622Z,15.00
2018-01-14T14:25:23.176Z,14.70
2018-01-14T14:27:50.765Z,15.07
2018-01-14T14:30:18.279Z,14.83
2018-01-14T14:32:45.844Z,15.43
2018-01-14T14:35:13.383Z,14.80
2018-01-14T14:37:40.935Z,15.47
2018-01-14T14:40:08.464Z,14.97
2018-01-14T14:42:35.984Z,15.77
2018-01-14T14:45:03.552Z,15.33
2018-01-14T14:47:31.078Z,15.00
2018-01-14T14:49:58.665Z,15.53
2018-01-14T14:52:26.191Z,14.93
2018-01-14T14:54:53.724Z,15.67
2018-01-14T14:57:21.236Z,15.93
2018-01-14T14:59:48.749Z,15.63
2018-01-14T15:02:16.266Z,18.98
2018-01-14T15:04:43.819Z,16.53
2018-01-14T15:07:11.387Z,16.83
2018-01-14T15:09:38.916Z,16.67
2018-01-14T15:12:06.471Z,15.60
2018-01-14T15:14:33.983Z,15.23
2018-01-14T15:17:01.505Z,16.67
2018-01-14T15:19:29.040Z,16.77
2018-01-14T15:21:56.645Z,16.73
2018-01-14T15:24:24.198Z,17.53
2018-01-14T15:26:51.704Z,15.83
2018-01-14T15:29:19.222Z,17.60
2018-01-14T15:31:46.776Z,16.37
2018-01-14T15:34:14.284Z,17.20
2018-01-14T15:36:41.892Z,17.27
2018-01-14T15:39:09.451Z,17.80
2018-01-14T15:41:36.977Z,17.33
2018-01-14T15:44:04.495Z,17.33
2018-01-14T15:46:32.040Z,16.93
2018-01-14T15:48:59.560Z,18.07
2018-01-14T15:51:27.148Z,18.77
2018-01-14T15:53:54.660Z,17.70
2018-01-14T15:56:22.168Z,20.33
2018-01-14T15:58:49.704Z,19.87
2018-01-14T16:01:17.225Z,20.13
2018-01-14T16:03:44.727Z,17.87
2018-01-14T16:06:12.308Z,18.20
2018-01-14T16:08:39.815Z,17.27
2018-01-14T16:11:07.428Z,20.27
2018-01-14T16:13:34.989Z,19.50
2018-01-14T16:16:02.548Z,18.70
2018-01-14T16:18:30.103Z,19.90
2018-01-14T16:20:57.636Z,18.70
2018-01-14T16:23:25.228Z,19.50
2018-01-14T16:25:52.757Z,20.37
2018-01-14T16:28:20.277Z,19.57
2018-01-14T16:30:47.909Z,18.83
2018-01-14T16:33:15.480Z,19.53
2018-01-14T16:35:43.040Z,19.00
2018-01-14T16:38:10.564Z,19.63
2018-01-14T16:40:38.088Z,19.53
2018-01-14T16:43:05.617Z,20.00
2018-01-14T16:45:33.135Z,19.13
2018-01-14T16:48:00.655Z,19.07
2018-01-14T16:50:28.190Z,19.73
2018-01-14T16:52:55.724Z,18.93
2018-01-14T16:55:23.326Z,20.43
2018-01-14T16:57:50.978Z,19.27
2018-01-14T17:00:18.523Z,20.83
2018-01-14T17:02:46.097Z,19.47
2018-01-14T17:05:13.628Z,20.87
2018-01-14T17:07:41.158Z,20.80
2018-01-14T17:10:08.723Z,20.13
2018-01-14T17:12:36.322Z,20.57
2018-01-14T17:15:03.854Z,20.07
2018-01-14T17:17:31.393Z,19.20
2018-01-14T17:19:58.910Z,18.83
2018-01-14T17:22:26.431Z,19.77
2018-01-14T17:24:53.957Z,21.10
2018-01-14T17:27:21.477Z,20.10
2018-01-14T17:29:49.059Z,20.00
2018-01-14T17:32:16.607Z,19.30
2018-01-14T17:34:44.137Z,21.30
2018-01-14T17:37:11.680Z,21.33
2018-01-14T17:39:39.397Z,20.93
2018-01-14T17:42:06.920Z,20.50
2018-01-14T17:44:34.580Z,21.57
2018-01-14T17:47:02.185Z,22.27
2018-01-14T17:49:29.840Z,20.23
2018-01-14T17:51:57.405Z,20.87
2018-01-14T17:54:24.923Z,22.13
2018-01-14T17:56:52.477Z,21.60
2018-01-14T17:59:20.080Z,21.13
2018-01-14T18:01:47.610Z,21.00
2018-01-14T18:04:15.129Z,21.37
2018-01-14T18:06:42.728Z,20.23
2018-01-14T18:09:10.240Z,21.50
2018-01-14T18:11:37.748Z,20.63
2018-01-14T18:14:05.337Z,21.33
2018-01-14T18:16:33.001Z,22.30
2018-01-14T18:19:00.525Z,21.60
2018-01-14T18:21:28.082Z,22.17
2018-01-14T18:23:55.613Z,21.17
2018-01-14T18:26:23.242Z,21.40
2018-01-14T18:28:50.799Z,20.20
2018-01-14T18:31:18.361Z,21.63
2018-01-14T18:33:45.903Z,19.70
2018-01-14T18:36:13.430Z,20.27
2018-01-14T18:38:41.041Z,20.43
2018-01-14T18:41:08.626Z,21.73
2018-01-14T18:43:36.248Z,22.47
2018-01-14T18:46:10.340Z,20.27
2018-01-14T18:48:37.858Z,20.73
2018-01-14T18:51:05.396Z,21.00
2018-01-14T18:53:32.955Z,20.30
2018-01-14T18:56:00.496Z,19.97
2018-01-14T18:58:28.020Z,20.50
2018-01-14T19:00:55.578Z,21.27
2018-01-14T19:03:23.224Z,20.50
2018-01-14T19:05:50.749Z,20.80
2018-01-14T19:08:18.277Z,20.43
2018-01-14T19:10:45.798Z,19.40
2018-01-14T19:13:13.330Z,19.50
2018-01-14T19:15:40.880Z,20.77
2018-01-14T19:18:08.438Z,20.40
2018-01-14T19:20:36.008Z,20.73
2018-01-14T19:23:03.536Z,19.23
2018-01-14T19:25:31.070Z,20.47
2018-01-14T19:27:58.614Z,20.30
2018-01-14T19:30:26.249Z,21.20
2018-01-14T19:32:53.767Z,20.63
2018-01-14T19:35:21.313Z,20.40
2018-01-14T19:37:48.931Z,20.97
2018-01-14T19:40:16.449Z,20.27
2018-01-14T19:42:44.012Z,20.53
2018-01-14T19:45:11.537Z,20.43
2018-01-14T19:47:39.069Z,21.53
2018-01-14T19:50:06.584Z,20.63
2018-01-14T19:52:34.176Z,21.40
2018-01-14T19:55:01.737Z,22.00
2018-01-14T19:57:29.248Z,21.17
2018-01-14T19:59:56.765Z,21.77
2018-01-14T20:02:24.279Z,22.30
2018-01-14T20:04:51.798Z,21.63
2018-01-14T20:07:19.442Z,21.13
2018-01-14T20:09:46.956Z,22.13
2018-01-14T20:12:14.468Z,21.63
2018-01-14T20:14:41.993Z,21.27
2018-01-14T20:17:09.568Z,21.93
2018-01-14T20:19:37.110Z,21.50
2018-01-14T20:22:04.632Z,22.70
2018-01-14T20:24:32.161Z,21.73
2018-01-14T20:26:59.703Z,21.80
2018-01-14T20:29:27.240Z,21.93
2018-01-14T20:31:54.829Z,21.07
2018-01-14T20:34:22.397Z,21.87
2018-01-14T20:36:49.914Z,21.20
2018-01-14T20:39:18.429Z,21.00
2018-01-14T20:41:45.993Z,21.30
2018-01-14T20:44:34.305Z,21.03
2018-01-14T20:47:01.840Z,21.13
2018-01-14T20:49:29.470Z,21.90
2018-01-14T20:51:56.996Z,22.17
2018-01-14T20:54:24.609Z,21.63
2018-01-14T20:56:52.236Z,21.80
2018-01-14T20:59:19.773Z,22.10
2018-01-14T21:01:47.487Z,21.60
2018-01-14T21:04:15.009Z,21.63
2018-01-14T21:06:42.580Z,21.30
2018-01-14T21:09:10.141Z,21.20
2018-01-14T21:11:37.704Z,21.20
2018-01-14T21:14:05.243Z,23.57
2018-01-14T21:16:32.784Z,22.20
2018-01-14T21:19:00.302Z,22.00
2018-01-14T21:21:27.860Z,21.87
2018-01-14T21:23:55.414Z,21.43
2018-01-14T21:26:22.965Z,22.37
2018-01-14T21:28:50.539Z,20.77
2018-01-14T21:31:18.048Z,21.67
2018-01-14T21:33:45.636Z,21.70
2018-01-14T21:36:13.167Z,22.17
2018-01-14T21:38:40.775Z,20.83
2018-01-14T21:41:08.297Z,20.77
2018-01-14T21:43:35.896Z,22.20
2018-01-14T21:46:03.420Z,22.20
2018-01-14T21:48:30.940Z,20.83
2018-01-14T21:50:59.416Z,20.20
2018-01-14T21:53:26.963Z,21.43
2018-01-14T21:55:54.476Z,20.80
2018-01-14T21:58:22.033Z,21.67
2018-01-14T22:00:49.667Z,21.43
2018-01-14T22:03:17.294Z,22.27
2018-01-14T22:05:45.050Z,22.23
2018-01-14T22:08:12.565Z,22.10
2018-01-14T22:10:40.113Z,21.60
2018-01-14T22:13:07.633Z,21.57
2018-01-14T22:15:35.308Z,22.33
2018-01-14T22:18:02.828Z,23.23
2018-01-14T22:20:30.422Z,23.07
2018-01-14T22:22:58.136Z,22.53
2018-01-14T22:25:25.813Z,22.80
2018-01-14T22:27:53.356Z,20.73
2018-01-14T22:30:21.106Z,21.77
2018-01-14T22:32:48.629Z,22.50
2018-01-14T22:35:16.224Z,24.13
2018-01-14T22:37:43.749Z,21.90
2018-01-14T22:40:11.344Z,21.87
2018-01-14T22:42:38.967Z,22.00
2018-01-14T22:45:06.503Z,23.17
2018-01-14T22:47:34.092Z,22.27
2018-01-14T22:50:01.665Z,25.55
2018-01-14T22:52:29.309Z,23.43
2018-01-14T22:54:56.875Z,22.90
2018-01-14T22:57:24.421Z,22.33
2018-01-14T22:59:52.022Z,21.37
2018-01-14T23:02:19.663Z,21.93
2018-01-14T23:04:47.251Z,23.80
2018-01-14T23:07:14.884Z,23.27
2018-01-14T23:09:42.438Z,23.43
2018-01-14T23:12:09.969Z,22.17
2018-01-14T23:14:37.546Z,23.50
2018-01-14T23:17:05.088Z,22.33
2018-01-14T23:19:44.442Z,23.83
2018-01-14T23:22:12.106Z,23.40
2018-01-14T23:24:39.661Z,22.77
2018-01-14T23:27:07.233Z,23.50
2018-01-14T23:29:34.759Z,23.83
2018-01-14T23:32:02.367Z,23.30
2018-01-14T23:34:29.904Z,24.10
2018-01-14T23:36:57.430Z,24.03
2018-01-14T23:39:25.142Z,25.27
2018-01-14T23:41:52.657Z,24.67
2018-01-14T23:44:20.243Z,24.07
2018-01-14T23:46:47.756Z,24.53
2018-01-14T23:49:15.384Z,24.47
2018-01-14T23:51:42.909Z,25.30
2018-01-14T23:54:10.430Z,25.37
2018-01-14T23:56:37.963Z,24.17
2018-01-14T23:59:05.480Z,24.13
